Terminal Aerodrome Forecast
Issued by NWS

Home | Current Version | Previous Version | Text Only | Print | Product List | Glossary On
Versions: 1 2 3 4 5 6 7 8 9 10 11 12 13 14 15 16 17 18 19 20 21 22
833
FTUS43 KDTX 282111 AAA
TAFDET
TAF AMD
KDET 282111Z 2821/2918 07006KT 6SM -SHRA SCT040 OVC080
      TEMPO 2822/2901 4SM SHRA BR OVC025
     FM290200 03008KT 6SM -SHRA OVC035
     FM290800 05010KT 3SM -SHRA BR OVC012
     FM291400 05012KT P6SM -SHRA OVC012=

USA.gov is the U.S. government's official web portal to all federal, state and local government web resources and services.